sensor_id;sensor_type;location;lat;lon;timestamp;pressure;altitude;pressure_sealevel;temperature;humidity
13732;BME280;6937;56.096;12.664;2024-02-23T00:00:26;97949.69;;;8.60;100.00
13732;BME280;6937;56.096;12.664;2024-02-23T00:02:52;97954.69;;;8.63;100.00
13732;BME280;6937;56.096;12.664;2024-02-23T00:05:19;97924.56;;;8.62;100.00
13732;BME280;6937;56.096;12.664;2024-02-23T00:07:44;97940.72;;;8.69;100.00
13732;BME280;6937;56.096;12.664;2024-02-23T00:10:10;97944.22;;;8.69;100.00
13732;BME280;6937;56.096;12.664;2024-02-23T00:12:35;97915.94;;;8.68;100.00
13732;BME280;6937;56.096;12.664;2024-02-23T00:15:01;97921.06;;;8.70;100.00
13732;BME280;6937;56.096;12.664;2024-02-23T00:17:26;97922.88;;;8.78;100.00
13732;BME280;6937;56.096;12.664;2024-02-23T00:19:52;97950.00;;;8.81;100.00
13732;BME280;6937;56.096;12.664;2024-02-23T00:22:18;97926.03;;;8.81;100.00
13732;BME280;6937;56.096;12.664;2024-02-23T00:24:45;97902.06;;;8.81;100.00
13732;BME280;6937;56.096;12.664;2024-02-23T00:27:10;97907.91;;;8.85;100.00
13732;BME280;6937;56.096;12.664;2024-02-23T00:29:35;97912.91;;;8.88;100.00
13732;BME280;6937;56.096;12.664;2024-02-23T00:32:02;97889.59;;;8.90;100.00
13732;BME280;6937;56.096;12.664;2024-02-23T00:34:27;97874.09;;;8.93;100.00
13732;BME280;6937;56.096;12.664;2024-02-23T00:36:55;97869.09;;;8.98;100.00
13732;BME280;6937;56.096;12.664;2024-02-23T00:39:21;97868.75;;;9.01;100.00
13732;BME280;6937;56.096;12.664;2024-02-23T00:41:46;97870.22;;;9.04;100.00
13732;BME280;6937;56.096;12.664;2024-02-23T00:44:12;97879.88;;;9.05;100.00
13732;BME280;6937;56.096;12.664;2024-02-23T00:46:37;97870.69;;;9.07;100.00
13732;BME280;6937;56.096;12.664;2024-02-23T00:49:05;97882.38;;;9.06;100.00
13732;BME280;6937;56.096;12.664;2024-02-23T00:51:31;97875.38;;;9.13;100.00
13732;BME280;6937;56.096;12.664;2024-02-23T00:53:56;97889.31;;;9.15;100.00
13732;BME280;6937;56.096;12.664;2024-02-23T00:56:22;97876.00;;;9.15;100.00
13732;BME280;6937;56.096;12.664;2024-02-23T00:58:47;97854.84;;;9.22;100.00
13732;BME280;6937;56.096;12.664;2024-02-23T01:01:12;97901.13;;;9.29;100.00
13732;BME280;6937;56.096;12.664;2024-02-23T01:03:38;97908.91;;;9.31;100.00
13732;BME280;6937;56.096;12.664;2024-02-23T01:06:03;97919.41;;;9.32;100.00
13732;BME280;6937;56.096;12.664;2024-02-23T01:08:29;97914.94;;;9.33;100.00
13732;BME280;6937;56.096;12.664;2024-02-23T01:10:54;97913.25;;;9.32;100.00
13732;BME280;6937;56.096;12.664;2024-02-23T01:13:20;97915.59;;;9.27;100.00
13732;BME280;6937;56.096;12.664;2024-02-23T01:15:45;97918.13;;;9.20;100.00
13732;BME280;6937;56.096;12.664;2024-02-23T01:18:10;97912.63;;;9.21;100.00
13732;BME280;6937;56.096;12.664;2024-02-23T01:20:36;97916.94;;;9.22;100.00
13732;BME280;6937;56.096;12.664;2024-02-23T01:23:01;97913.63;;;9.20;100.00
13732;BME280;6937;56.096;12.664;2024-02-23T01:25:27;97901.81;;;9.15;100.00
13732;BME280;6937;56.096;12.664;2024-02-23T01:27:52;97890.53;;;9.05;100.00
13732;BME280;6937;56.096;12.664;2024-02-23T01:30:17;97893.53;;;9.02;100.00
13732;BME280;6937;56.096;12.664;2024-02-23T01:32:44;97875.41;;;8.97;100.00
13732;BME280;6937;56.096;12.664;2024-02-23T01:35:10;97880.09;;;8.95;100.00
13732;BME280;6937;56.096;12.664;2024-02-23T01:37:35;97874.44;;;8.90;100.00
13732;BME280;6937;56.096;12.664;2024-02-23T01:40:02;97846.16;;;8.81;100.00
13732;BME280;6937;56.096;12.664;2024-02-23T01:42:27;97831.72;;;8.76;100.00
13732;BME280;6937;56.096;12.664;2024-02-23T01:44:53;97835.22;;;8.68;100.00
13732;BME280;6937;56.096;12.664;2024-02-23T01:47:18;97840.56;;;8.60;100.00
13732;BME280;6937;56.096;12.664;2024-02-23T01:49:47;97818.31;;;8.53;100.00
13732;BME280;6937;56.096;12.664;2024-02-23T01:52:13;97821.97;;;8.44;100.00
13732;BME280;6937;56.096;12.664;2024-02-23T01:54:39;97811.38;;;8.36;100.00
13732;BME280;6937;56.096;12.664;2024-02-23T01:57:06;97827.00;;;8.31;100.00
13732;BME280;6937;56.096;12.664;2024-02-23T01:59:34;97813.16;;;8.27;100.00
13732;BME280;6937;56.096;12.664;2024-02-23T02:02:02;97824.97;;;8.24;100.00
13732;BME280;6937;56.096;12.664;2024-02-23T02:04:28;97824.50;;;8.13;100.00
13732;BME280;6937;56.096;12.664;2024-02-23T02:06:54;97829.31;;;8.09;100.00
13732;BME280;6937;56.096;12.664;2024-02-23T02:09:19;97826.47;;;8.03;100.00
13732;BME280;6937;56.096;12.664;2024-02-23T02:11:46;97817.50;;;8.04;100.00
13732;BME280;6937;56.096;12.664;2024-02-23T02:14:12;97798.25;;;8.02;100.00
13732;BME280;6937;56.096;12.664;2024-02-23T02:16:38;97795.72;;;8.00;100.00
13732;BME280;6937;56.096;12.664;2024-02-23T02:19:04;97800.38;;;8.06;100.00
13732;BME280;6937;56.096;12.664;2024-02-23T02:21:31;97801.06;;;8.08;100.00
13732;BME280;6937;56.096;12.664;2024-02-23T02:23:56;97801.88;;;8.09;100.00
13732;BME280;6937;56.096;12.664;2024-02-23T02:26:22;97822.81;;;8.12;100.00
13732;BME280;6937;56.096;12.664;2024-02-23T02:28:47;97818.69;;;8.09;100.00
13732;BME280;6937;56.096;12.664;2024-02-23T02:31:12;97816.31;;;8.06;100.00
13732;BME280;6937;56.096;12.664;2024-02-23T02:33:40;97814.69;;;8.05;100.00
13732;BME280;6937;56.096;12.664;2024-02-23T02:36:05;97826.97;;;8.06;100.00
13732;BME280;6937;56.096;12.664;2024-02-23T02:38:31;97811.53;;;8.02;100.00
13732;BME280;6937;56.096;12.664;2024-02-23T02:40:58;97807.38;;;7.99;100.00
13732;BME280;6937;56.096;12.664;2024-02-23T02:43:25;97798.06;;;8.03;100.00
13732;BME280;6937;56.096;12.664;2024-02-23T02:45:51;97825.00;;;8.08;100.00
13732;BME280;6937;56.096;12.664;2024-02-23T02:48:16;97814.69;;;8.05;100.00
13732;BME280;6937;56.096;12.664;2024-02-23T02:50:42;97796.06;;;7.97;100.00
13732;BME280;6937;56.096;12.664;2024-02-23T02:53:07;97806.03;;;8.19;100.00
13732;BME280;6937;56.096;12.664;2024-02-23T02:55:33;97798.38;;;8.41;100.00
13732;BME280;6937;56.096;12.664;2024-02-23T02:57:58;97759.88;;;8.59;100.00
13732;BME280;6937;56.096;12.664;2024-02-23T03:00:24;97749.66;;;8.79;100.00
13732;BME280;6937;56.096;12.664;2024-02-23T03:02:49;97721.66;;;8.91;100.00
13732;BME280;6937;56.096;12.664;2024-02-23T03:05:15;97715.84;;;8.88;100.00
13732;BME280;6937;56.096;12.664;2024-02-23T03:07:40;97724.44;;;8.98;100.00
13732;BME280;6937;56.096;12.664;2024-02-23T03:10:06;97710.13;;;8.99;100.00
13732;BME280;6937;56.096;12.664;2024-02-23T03:12:31;97718.28;;;8.97;100.00
13732;BME280;6937;56.096;12.664;2024-02-23T03:14:57;97710.47;;;8.96;100.00
13732;BME280;6937;56.096;12.664;2024-02-23T03:17:23;97710.66;;;8.94;100.00
13732;BME280;6937;56.096;12.664;2024-02-23T03:19:48;97714.56;;;8.76;100.00
13732;BME280;6937;56.096;12.664;2024-02-23T03:22:15;97713.50;;;8.62;100.00
13732;BME280;6937;56.096;12.664;2024-02-23T03:24:41;97714.16;;;8.56;100.00
13732;BME280;6937;56.096;12.664;2024-02-23T03:27:06;97726.97;;;8.52;100.00
13732;BME280;6937;56.096;12.664;2024-02-23T03:29:32;97742.59;;;8.55;100.00
13732;BME280;6937;56.096;12.664;2024-02-23T03:31:58;97735.47;;;8.48;100.00
13732;BME280;6937;56.096;12.664;2024-02-23T03:34:24;97769.59;;;8.36;100.00
13732;BME280;6937;56.096;12.664;2024-02-23T03:36:50;97746.66;;;8.27;100.00
13732;BME280;6937;56.096;12.664;2024-02-23T03:39:15;97764.81;;;8.07;100.00
13732;BME280;6937;56.096;12.664;2024-02-23T03:41:41;97759.69;;;8.06;100.00
13732;BME280;6937;56.096;12.664;2024-02-23T03:44:06;97774.97;;;7.88;100.00
13732;BME280;6937;56.096;12.664;2024-02-23T03:46:31;97796.41;;;7.78;100.00
13732;BME280;6937;56.096;12.664;2024-02-23T03:48:57;97794.44;;;7.72;100.00
13732;BME280;6937;56.096;12.664;2024-02-23T03:51:23;97828.63;;;7.67;100.00
13732;BME280;6937;56.096;12.664;2024-02-23T03:53:49;97797.06;;;7.56;100.00
13732;BME280;6937;56.096;12.664;2024-02-23T03:56:15;97811.16;;;7.48;100.00
13732;BME280;6937;56.096;12.664;2024-02-23T03:58:41;97811.16;;;7.48;100.00
13732;BME280;6937;56.096;12.664;2024-02-23T04:01:06;97814.47;;;7.34;100.00
13732;BME280;6937;56.096;12.664;2024-02-23T04:03:31;97842.66;;;7.27;100.00
13732;BME280;6937;56.096;12.664;2024-02-23T04:05:57;97848.13;;;7.25;100.00
13732;BME280;6937;56.096;12.664;2024-02-23T04:08:22;97866.88;;;7.24;100.00
13732;BME280;6937;56.096;12.664;2024-02-23T04:10:47;97875.50;;;7.18;100.00
13732;BME280;6937;56.096;12.664;2024-02-23T04:13:13;97864.03;;;7.17;100.00
13732;BME280;6937;56.096;12.664;2024-02-23T04:15:43;97889.94;;;7.15;100.00
13732;BME280;6937;56.096;12.664;2024-02-23T04:18:09;97902.03;;;7.18;100.00
13732;BME280;6937;56.096;12.664;2024-02-23T04:20:34;97890.91;;;7.14;100.00
13732;BME280;6937;56.096;12.664;2024-02-23T04:22:59;97886.44;;;7.15;100.00
13732;BME280;6937;56.096;12.664;2024-02-23T04:25:25;97912.16;;;7.14;100.00
13732;BME280;6937;56.096;12.664;2024-02-23T04:27:51;97925.75;;;7.11;100.00
13732;BME280;6937;56.096;12.664;2024-02-23T04:30:16;97921.75;;;7.07;100.00
13732;BME280;6937;56.096;12.664;2024-02-23T04:32:42;97930.56;;;7.08;100.00
13732;BME280;6937;56.096;12.664;2024-02-23T04:35:08;97932.84;;;7.03;100.00
13732;BME280;6937;56.096;12.664;2024-02-23T04:37:33;97941.78;;;7.02;100.00
13732;BME280;6937;56.096;12.664;2024-02-23T04:39:59;97951.63;;;7.09;100.00
13732;BME280;6937;56.096;12.664;2024-02-23T04:42:24;97943.47;;;7.03;100.00
13732;BME280;6937;56.096;12.664;2024-02-23T04:44:50;97946.81;;;7.05;100.00
13732;BME280;6937;56.096;12.664;2024-02-23T04:47:17;97960.69;;;6.99;100.00
13732;BME280;6937;56.096;12.664;2024-02-23T04:49:43;97949.69;;;6.94;100.00
13732;BME280;6937;56.096;12.664;2024-02-23T04:52:08;97972.59;;;6.95;100.00
13732;BME280;6937;56.096;12.664;2024-02-23T04:54:34;97968.78;;;6.89;100.00
13732;BME280;6937;56.096;12.664;2024-02-23T04:57:00;97981.03;;;6.90;100.00
13732;BME280;6937;56.096;12.664;2024-02-23T04:59:25;97991.13;;;6.87;100.00
13732;BME280;6937;56.096;12.664;2024-02-23T05:01:50;97986.78;;;6.77;100.00
13732;BME280;6937;56.096;12.664;2024-02-23T05:04:16;97998.50;;;6.75;100.00
13732;BME280;6937;56.096;12.664;2024-02-23T05:06:41;97993.38;;;6.73;100.00
13732;BME280;6937;56.096;12.664;2024-02-23T05:09:08;98036.06;;;6.62;100.00
13732;BME280;6937;56.096;12.664;2024-02-23T05:11:34;98002.94;;;6.66;100.00
13732;BME280;6937;56.096;12.664;2024-02-23T05:13:59;98032.59;;;6.62;100.00
13732;BME280;6937;56.096;12.664;2024-02-23T05:16:25;98030.25;;;6.59;100.00
13732;BME280;6937;56.096;12.664;2024-02-23T05:18:50;98031.34;;;6.56;100.00
13732;BME280;6937;56.096;12.664;2024-02-23T05:21:16;98028.19;;;6.53;100.00
13732;BME280;6937;56.096;12.664;2024-02-23T05:23:41;98019.09;;;6.55;100.00
13732;BME280;6937;56.096;12.664;2024-02-23T05:26:07;98024.56;;;6.54;100.00
13732;BME280;6937;56.096;12.664;2024-02-23T05:28:32;98050.56;;;6.50;100.00
13732;BME280;6937;56.096;12.664;2024-02-23T05:30:58;98052.16;;;6.43;100.00
13732;BME280;6937;56.096;12.664;2024-02-23T05:33:23;98057.31;;;6.45;100.00
13732;BME280;6937;56.096;12.664;2024-02-23T05:35:49;98073.44;;;6.34;100.00
13732;BME280;6937;56.096;12.664;2024-02-23T05:38:15;98083.06;;;6.35;100.00
13732;BME280;6937;56.096;12.664;2024-02-23T05:40:40;98071.38;;;6.27;100.00
13732;BME280;6937;56.096;12.664;2024-02-23T05:43:06;98094.50;;;6.35;100.00
13732;BME280;6937;56.096;12.664;2024-02-23T05:45:31;98137.78;;;6.36;100.00
13732;BME280;6937;56.096;12.664;2024-02-23T05:47:56;98120.47;;;6.31;100.00
13732;BME280;6937;56.096;12.664;2024-02-23T05:50:22;98101.63;;;6.35;100.00
13732;BME280;6937;56.096;12.664;2024-02-23T05:52:47;98139.28;;;6.38;100.00
13732;BME280;6937;56.096;12.664;2024-02-23T05:55:13;98116.69;;;6.34;100.00
13732;BME280;6937;56.096;12.664;2024-02-23T05:57:38;98125.94;;;6.30;100.00
13732;BME280;6937;56.096;12.664;2024-02-23T06:00:04;98155.66;;;6.34;100.00
13732;BME280;6937;56.096;12.664;2024-02-23T06:02:30;98149.78;;;6.30;100.00
13732;BME280;6937;56.096;12.664;2024-02-23T06:04:55;98165.28;;;6.35;100.00
13732;BME280;6937;56.096;12.664;2024-02-23T06:07:21;98157.91;;;6.28;100.00
13732;BME280;6937;56.096;12.664;2024-02-23T06:09:54;98187.09;;;6.28;100.00
13732;BME280;6937;56.096;12.664;2024-02-23T06:12:19;98166.16;;;6.25;100.00
13732;BME280;6937;56.096;12.664;2024-02-23T06:14:44;98174.97;;;6.26;100.00
13732;BME280;6937;56.096;12.664;2024-02-23T06:17:10;98183.50;;;6.20;100.00
13732;BME280;6937;56.096;12.664;2024-02-23T06:19:35;98196.34;;;6.15;100.00
13732;BME280;6937;56.096;12.664;2024-02-23T06:22:00;98199.94;;;6.23;100.00
13732;BME280;6937;56.096;12.664;2024-02-23T06:24:26;98218.38;;;6.25;100.00
13732;BME280;6937;56.096;12.664;2024-02-23T06:26:52;98216.56;;;6.25;100.00
13732;BME280;6937;56.096;12.664;2024-02-23T06:29:17;98249.34;;;6.24;100.00
13732;BME280;6937;56.096;12.664;2024-02-23T06:31:43;98239.97;;;6.30;100.00
13732;BME280;6937;56.096;12.664;2024-02-23T06:34:14;98228.25;;;6.32;100.00
13732;BME280;6937;56.096;12.664;2024-02-23T06:36:39;98261.19;;;6.30;100.00
13732;BME280;6937;56.096;12.664;2024-02-23T06:39:05;98248.19;;;6.37;100.00
13732;BME280;6937;56.096;12.664;2024-02-23T06:41:30;98258.22;;;6.43;100.00
13732;BME280;6937;56.096;12.664;2024-02-23T06:43:56;98254.88;;;6.41;100.00
13732;BME280;6937;56.096;12.664;2024-02-23T06:46:22;98275.50;;;6.47;100.00
13732;BME280;6937;56.096;12.664;2024-02-23T06:48:47;98280.56;;;6.40;100.00
13732;BME280;6937;56.096;12.664;2024-02-23T06:51:13;98276.38;;;6.38;100.00
13732;BME280;6937;56.096;12.664;2024-02-23T06:53:39;98291.19;;;6.40;100.00
13732;BME280;6937;56.096;12.664;2024-02-23T06:56:05;98298.97;;;6.42;100.00
13732;BME280;6937;56.096;12.664;2024-02-23T06:58:30;98302.63;;;6.41;100.00
13732;BME280;6937;56.096;12.664;2024-02-23T07:00:56;98307.63;;;6.44;100.00
13732;BME280;6937;56.096;12.664;2024-02-23T07:03:21;98314.22;;;6.40;100.00
13732;BME280;6937;56.096;12.664;2024-02-23T07:05:46;98305.72;;;6.36;100.00
13732;BME280;6937;56.096;12.664;2024-02-23T07:08:13;98338.22;;;6.38;100.00
13732;BME280;6937;56.096;12.664;2024-02-23T07:10:38;98337.53;;;6.36;100.00
13732;BME280;6937;56.096;12.664;2024-02-23T07:13:04;98339.22;;;6.27;100.00
13732;BME280;6937;56.096;12.664;2024-02-23T07:15:29;98377.63;;;6.33;100.00
13732;BME280;6937;56.096;12.664;2024-02-23T07:17:57;98354.28;;;6.37;100.00
13732;BME280;6937;56.096;12.664;2024-02-23T07:20:23;98359.03;;;6.33;100.00
13732;BME280;6937;56.096;12.664;2024-02-23T07:22:48;98370.59;;;6.42;100.00
13732;BME280;6937;56.096;12.664;2024-02-23T07:25:18;98369.06;;;6.39;100.00
13732;BME280;6937;56.096;12.664;2024-02-23T07:27:45;98390.44;;;6.38;100.00
13732;BME280;6937;56.096;12.664;2024-02-23T07:30:11;98394.75;;;6.39;100.00
13732;BME280;6937;56.096;12.664;2024-02-23T07:32:37;98395.47;;;6.31;100.00
13732;BME280;6937;56.096;12.664;2024-02-23T07:35:03;98412.66;;;6.37;100.00
13732;BME280;6937;56.096;12.664;2024-02-23T07:37:29;98429.41;;;6.37;100.00
13732;BME280;6937;56.096;12.664;2024-02-23T07:39:54;98413.34;;;6.29;100.00
13732;BME280;6937;56.096;12.664;2024-02-23T07:42:19;98441.41;;;6.31;100.00
13732;BME280;6937;56.096;12.664;2024-02-23T07:44:45;98448.38;;;6.32;100.00
13732;BME280;6937;56.096;12.664;2024-02-23T07:47:13;98446.84;;;6.40;100.00
13732;BME280;6937;56.096;12.664;2024-02-23T07:49:39;98472.66;;;6.38;100.00
13732;BME280;6937;56.096;12.664;2024-02-23T07:52:06;98452.69;;;6.43;100.00
13732;BME280;6937;56.096;12.664;2024-02-23T07:54:32;98471.13;;;6.45;100.00
13732;BME280;6937;56.096;12.664;2024-02-23T07:56:57;98465.66;;;6.46;100.00
13732;BME280;6937;56.096;12.664;2024-02-23T07:59:22;98490.25;;;6.48;100.00
13732;BME280;6937;56.096;12.664;2024-02-23T08:01:48;98463.44;;;6.42;100.00
13732;BME280;6937;56.096;12.664;2024-02-23T08:04:14;98477.69;;;6.41;100.00
13732;BME280;6937;56.096;12.664;2024-02-23T08:06:39;98492.50;;;6.43;100.00
13732;BME280;6937;56.096;12.664;2024-02-23T08:09:04;98490.69;;;6.44;100.00
13732;BME280;6937;56.096;12.664;2024-02-23T08:11:30;98492.06;;;6.38;100.00
13732;BME280;6937;56.096;12.664;2024-02-23T08:13:55;98509.38;;;6.32;100.00
13732;BME280;6937;56.096;12.664;2024-02-23T08:16:21;98510.66;;;6.28;100.00
13732;BME280;6937;56.096;12.664;2024-02-23T08:18:46;98543.44;;;6.27;100.00
13732;BME280;6937;56.096;12.664;2024-02-23T08:21:12;98537.84;;;6.21;100.00
13732;BME280;6937;56.096;12.664;2024-02-23T08:23:38;98543.28;;;6.19;100.00
13732;BME280;6937;56.096;12.664;2024-02-23T08:26:03;98548.19;;;6.14;100.00
13732;BME280;6937;56.096;12.664;2024-02-23T08:28:29;98562.84;;;6.18;100.00
13732;BME280;6937;56.096;12.664;2024-02-23T08:30:54;98562.00;;;6.18;100.00
13732;BME280;6937;56.096;12.664;2024-02-23T08:33:19;98589.50;;;6.17;100.00
13732;BME280;6937;56.096;12.664;2024-02-23T08:35:45;98593.09;;;6.16;100.00
13732;BME280;6937;56.096;12.664;2024-02-23T08:38:11;98587.69;;;6.17;100.00
13732;BME280;6937;56.096;12.664;2024-02-23T08:40:36;98616.28;;;6.14;100.00
13732;BME280;6937;56.096;12.664;2024-02-23T08:43:02;98622.00;;;6.19;100.00
13732;BME280;6937;56.096;12.664;2024-02-23T08:45:28;98617.00;;;6.25;100.00
13732;BME280;6937;56.096;12.664;2024-02-23T08:47:53;98621.88;;;6.30;100.00
13732;BME280;6937;56.096;12.664;2024-02-23T08:50:19;98630.44;;;6.34;100.00
13732;BME280;6937;56.096;12.664;2024-02-23T08:52:44;98646.06;;;6.37;100.00
13732;BME280;6937;56.096;12.664;2024-02-23T08:55:09;98635.75;;;6.43;100.00
13732;BME280;6937;56.096;12.664;2024-02-23T08:57:36;98641.06;;;6.43;100.00
13732;BME280;6937;56.096;12.664;2024-02-23T09:00:03;98632.41;;;6.51;100.00
13732;BME280;6937;56.096;12.664;2024-02-23T09:02:30;98655.31;;;6.61;100.00
13732;BME280;6937;56.096;12.664;2024-02-23T09:04:56;98644.16;;;6.67;100.00
13732;BME280;6937;56.096;12.664;2024-02-23T09:07:21;98656.03;;;6.73;100.00
13732;BME280;6937;56.096;12.664;2024-02-23T09:09:47;98660.94;;;6.77;100.00
13732;BME280;6937;56.096;12.664;2024-02-23T09:12:14;98664.00;;;6.82;100.00
13732;BME280;6937;56.096;12.664;2024-02-23T09:14:42;98691.94;;;6.87;100.00
13732;BME280;6937;56.096;12.664;2024-02-23T09:17:08;98686.22;;;6.91;100.00
13732;BME280;6937;56.096;12.664;2024-02-23T09:19:35;98670.31;;;6.91;100.00
13732;BME280;6937;56.096;12.664;2024-02-23T09:22:02;98701.63;;;6.97;100.00
13732;BME280;6937;56.096;12.664;2024-02-23T09:24:27;98696.44;;;7.05;100.00
13732;BME280;6937;56.096;12.664;2024-02-23T09:26:53;98706.94;;;7.07;100.00
13732;BME280;6937;56.096;12.664;2024-02-23T09:29:18;98714.59;;;7.10;100.00
13732;BME280;6937;56.096;12.664;2024-02-23T09:31:44;98711.94;;;7.10;100.00
13732;BME280;6937;56.096;12.664;2024-02-23T09:34:10;98729.16;;;7.06;100.00
13732;BME280;6937;56.096;12.664;2024-02-23T09:36:35;98729.31;;;7.04;100.00
13732;BME280;6937;56.096;12.664;2024-02-23T09:39:00;98749.81;;;7.02;100.00
13732;BME280;6937;56.096;12.664;2024-02-23T09:41:27;98760.59;;;7.01;100.00
13732;BME280;6937;56.096;12.664;2024-02-23T09:43:54;98769.38;;;7.01;100.00
13732;BME280;6937;56.096;12.664;2024-02-23T09:46:23;98773.31;;;6.97;100.00
13732;BME280;6937;56.096;12.664;2024-02-23T09:48:49;98768.81;;;6.98;100.00
13732;BME280;6937;56.096;12.664;2024-02-23T09:51:15;98794.69;;;6.96;100.00
13732;BME280;6937;56.096;12.664;2024-02-23T09:53:41;98798.19;;;6.96;100.00
13732;BME280;6937;56.096;12.664;2024-02-23T09:56:10;98802.66;;;6.96;100.00
13732;BME280;6937;56.096;12.664;2024-02-23T09:58:36;98820.41;;;6.95;100.00
13732;BME280;6937;56.096;12.664;2024-02-23T10:01:03;98815.34;;;6.92;100.00
13732;BME280;6937;56.096;12.664;2024-02-23T10:03:29;98828.81;;;7.00;100.00
13732;BME280;6937;56.096;12.664;2024-02-23T10:05:58;98846.53;;;7.00;100.00
13732;BME280;6937;56.096;12.664;2024-02-23T10:08:27;98851.13;;;6.98;100.00
13732;BME280;6937;56.096;12.664;2024-02-23T10:10:52;98853.56;;;7.01;100.00
13732;BME280;6937;56.096;12.664;2024-02-23T10:13:22;98844.28;;;6.95;100.00
13732;BME280;6937;56.096;12.664;2024-02-23T10:15:48;98852.44;;;7.03;100.00
13732;BME280;6937;56.096;12.664;2024-02-23T10:18:13;98879.69;;;7.05;100.00
13732;BME280;6937;56.096;12.664;2024-02-23T10:20:40;98877.88;;;7.06;100.00
13732;BME280;6937;56.096;12.664;2024-02-23T10:23:07;98885.72;;;7.07;100.00
13732;BME280;6937;56.096;12.664;2024-02-23T10:25:36;98904.44;;;7.06;100.00
13732;BME280;6937;56.096;12.664;2024-02-23T10:28:05;98891.69;;;7.00;100.00
13732;BME280;6937;56.096;12.664;2024-02-23T10:30:31;98914.34;;;7.04;100.00
13732;BME280;6937;56.096;12.664;2024-02-23T10:32:57;98916.28;;;7.02;100.00
13732;BME280;6937;56.096;12.664;2024-02-23T10:35:24;98920.91;;;7.00;100.00
13732;BME280;6937;56.096;12.664;2024-02-23T10:37:50;98919.09;;;7.00;100.00
13732;BME280;6937;56.096;12.664;2024-02-23T10:40:18;98933.91;;;7.03;100.00
13732;BME280;6937;56.096;12.664;2024-02-23T10:42:45;98931.38;;;7.01;100.00
13732;BME280;6937;56.096;12.664;2024-02-23T10:45:19;98950.81;;;7.02;100.00
13732;BME280;6937;56.096;12.664;2024-02-23T10:47:47;98949.44;;;7.07;100.00
13732;BME280;6937;56.096;12.664;2024-02-23T10:50:14;98943.28;;;7.07;100.00
13732;BME280;6937;56.096;12.664;2024-02-23T10:52:42;98953.81;;;7.08;100.00
13732;BME280;6937;56.096;12.664;2024-02-23T10:55:11;98963.44;;;7.09;100.00
13732;BME280;6937;56.096;12.664;2024-02-23T10:57:37;98971.13;;;7.12;100.00
13732;BME280;6937;56.096;12.664;2024-02-23T11:00:04;98973.66;;;7.14;100.00
13732;BME280;6937;56.096;12.664;2024-02-23T11:02:35;98968.22;;;7.15;100.00
13732;BME280;6937;56.096;12.664;2024-02-23T11:05:02;98961.69;;;7.19;100.00
13732;BME280;6937;56.096;12.664;2024-02-23T11:07:30;98976.03;;;7.17;100.00
13732;BME280;6937;56.096;12.664;2024-02-23T11:09:58;98971.56;;;7.17;100.00
13732;BME280;6937;56.096;12.664;2024-02-23T11:12:25;98995.63;;;7.16;100.00
13732;BME280;6937;56.096;12.664;2024-02-23T11:14:51;99003.00;;;7.12;100.00
13732;BME280;6937;56.096;12.664;2024-02-23T11:17:21;99003.53;;;7.06;100.00
13732;BME280;6937;56.096;12.664;2024-02-23T11:19:49;99014.31;;;7.05;100.00
13732;BME280;6937;56.096;12.664;2024-02-23T11:22:23;99014.34;;;7.14;100.00
13732;BME280;6937;56.096;12.664;2024-02-23T11:24:49;99034.81;;;7.23;100.00
13732;BME280;6937;56.096;12.664;2024-02-23T11:27:15;99039.31;;;7.33;100.00
13732;BME280;6937;56.096;12.664;2024-02-23T11:29:44;99037.69;;;7.41;100.00
13732;BME280;6937;56.096;12.664;2024-02-23T11:32:16;99026.22;;;7.41;100.00
13732;BME280;6937;56.096;12.664;2024-02-23T11:34:55;99045.94;;;7.38;100.00
13732;BME280;6937;56.096;12.664;2024-02-23T11:37:23;99061.03;;;7.38;100.00
13732;BME280;6937;56.096;12.664;2024-02-23T11:39:49;99054.88;;;7.37;100.00
13732;BME280;6937;56.096;12.664;2024-02-23T11:42:15;99060.31;;;7.36;100.00
13732;BME280;6937;56.096;12.664;2024-02-23T11:44:40;99068.28;;;7.36;100.00
13732;BME280;6937;56.096;12.664;2024-02-23T11:47:07;99111.34;;;7.29;100.00
13732;BME280;6937;56.096;12.664;2024-02-23T11:49:32;99098.06;;;7.29;100.00
13732;BME280;6937;56.096;12.664;2024-02-23T11:51:58;99106.97;;;7.28;100.00
13732;BME280;6937;56.096;12.664;2024-02-23T11:54:24;99093.00;;;7.26;100.00
13732;BME280;6937;56.096;12.664;2024-02-23T11:56:49;99100.44;;;7.33;100.00
13732;BME280;6937;56.096;12.664;2024-02-23T11:59:18;99102.81;;;7.36;100.00
13732;BME280;6937;56.096;12.664;2024-02-23T12:01:46;99094.84;;;7.36;100.00
13732;BME280;6937;56.096;12.664;2024-02-23T12:04:12;99103.38;;;7.29;100.00
13732;BME280;6937;56.096;12.664;2024-02-23T12:06:37;99109.91;;;7.25;100.00
13732;BME280;6937;56.096;12.664;2024-02-23T12:09:03;99118.00;;;7.24;100.00
13732;BME280;6937;56.096;12.664;2024-02-23T12:11:29;99141.00;;;7.14;100.00
13732;BME280;6937;56.096;12.664;2024-02-23T12:13:55;99145.22;;;7.16;100.00
13732;BME280;6937;56.096;12.664;2024-02-23T12:16:21;99160.06;;;7.19;100.00
13732;BME280;6937;56.096;12.664;2024-02-23T12:18:53;99164.53;;;7.18;100.00
13732;BME280;6937;56.096;12.664;2024-02-23T12:21:19;99176.84;;;7.19;100.00
13732;BME280;6937;56.096;12.664;2024-02-23T12:23:45;99175.84;;;7.20;100.00
13732;BME280;6937;56.096;12.664;2024-02-23T12:26:14;99184.09;;;7.17;100.00
13732;BME280;6937;56.096;12.664;2024-02-23T12:28:40;99170.97;;;7.16;100.00
13732;BME280;6937;56.096;12.664;2024-02-23T12:31:06;99190.25;;;7.18;100.00
13732;BME280;6937;56.096;12.664;2024-02-23T12:33:32;99216.31;;;7.24;100.00
13732;BME280;6937;56.096;12.664;2024-02-23T12:35:59;99181.53;;;7.27;100.00
13732;BME280;6937;56.096;12.664;2024-02-23T12:38:25;99186.19;;;7.35;100.00
13732;BME280;6937;56.096;12.664;2024-02-23T12:40:51;99197.59;;;7.46;100.00
13732;BME280;6937;56.096;12.664;2024-02-23T12:43:17;99214.84;;;7.52;100.00
13732;BME280;6937;56.096;12.664;2024-02-23T12:45:42;99217.63;;;7.50;100.00
13732;BME280;6937;56.096;12.664;2024-02-23T12:48:10;99224.25;;;7.56;100.00
13732;BME280;6937;56.096;12.664;2024-02-23T12:50:35;99212.69;;;7.66;100.00
13732;BME280;6937;56.096;12.664;2024-02-23T12:53:02;99216.81;;;7.80;100.00